sensor_id;sensor_type;location;lat;lon;timestamp;P1;durP1;ratioP1;P2;durP2;ratioP2
25073;SDS011;13066;52.042;5.648;2022-08-03T00:02:17;10.65;;;2.10;;
25073;SDS011;13066;52.042;5.648;2022-08-03T00:04:45;4.72;;;1.50;;
25073;SDS011;13066;52.042;5.648;2022-08-03T00:07:14;12.77;;;1.73;;
25073;SDS011;13066;52.042;5.648;2022-08-03T00:09:42;7.03;;;1.80;;
25073;SDS011;13066;52.042;5.648;2022-08-03T00:12:10;4.03;;;1.77;;
25073;SDS011;13066;52.042;5.648;2022-08-03T00:14:39;7.25;;;1.67;;
25073;SDS011;13066;52.042;5.648;2022-08-03T00:17:08;7.10;;;1.83;;
25073;SDS011;13066;52.042;5.648;2022-08-03T00:19:36;7.97;;;1.60;;
25073;SDS011;13066;52.042;5.648;2022-08-03T00:22:04;8.13;;;1.92;;
25073;SDS011;13066;52.042;5.648;2022-08-03T00:24:32;4.70;;;1.42;;
25073;SDS011;13066;52.042;5.648;2022-08-03T00:27:01;12.45;;;1.92;;
25073;SDS011;13066;52.042;5.648;2022-08-03T00:29:29;14.35;;;2.53;;
25073;SDS011;13066;52.042;5.648;2022-08-03T00:31:57;9.30;;;1.50;;
25073;SDS011;13066;52.042;5.648;2022-08-03T00:34:27;6.88;;;1.90;;
25073;SDS011;13066;52.042;5.648;2022-08-03T00:37:16;11.25;;;1.80;;
25073;SDS011;13066;52.042;5.648;2022-08-03T00:39:44;5.55;;;1.70;;
25073;SDS011;13066;52.042;5.648;2022-08-03T00:42:13;7.30;;;1.65;;
25073;SDS011;13066;52.042;5.648;2022-08-03T00:44:42;9.38;;;2.08;;
25073;SDS011;13066;52.042;5.648;2022-08-03T00:47:11;6.78;;;2.00;;
25073;SDS011;13066;52.042;5.648;2022-08-03T00:49:40;6.43;;;1.85;;
25073;SDS011;13066;52.042;5.648;2022-08-03T00:52:09;7.72;;;2.10;;
25073;SDS011;13066;52.042;5.648;2022-08-03T00:54:37;5.35;;;2.08;;
25073;SDS011;13066;52.042;5.648;2022-08-03T00:57:07;8.20;;;2.13;;
25073;SDS011;13066;52.042;5.648;2022-08-03T00:59:35;4.45;;;2.08;;
25073;SDS011;13066;52.042;5.648;2022-08-03T01:02:05;5.20;;;2.08;;
25073;SDS011;13066;52.042;5.648;2022-08-03T01:04:33;13.05;;;2.30;;
25073;SDS011;13066;52.042;5.648;2022-08-03T01:07:05;7.13;;;2.15;;
25073;SDS011;13066;52.042;5.648;2022-08-03T01:09:40;12.73;;;2.63;;
25073;SDS011;13066;52.042;5.648;2022-08-03T01:14:47;9.63;;;2.15;;
25073;SDS011;13066;52.042;5.648;2022-08-03T01:17:19;7.80;;;2.28;;
25073;SDS011;13066;52.042;5.648;2022-08-03T01:19:53;6.83;;;2.77;;
25073;SDS011;13066;52.042;5.648;2022-08-03T01:22:44;7.75;;;2.45;;
25073;SDS011;13066;52.042;5.648;2022-08-03T01:25:27;5.75;;;2.08;;
25073;SDS011;13066;52.042;5.648;2022-08-03T01:28:07;5.90;;;2.20;;
25073;SDS011;13066;52.042;5.648;2022-08-03T01:30:53;11.07;;;3.00;;
25073;SDS011;13066;52.042;5.648;2022-08-03T01:35:57;9.88;;;2.28;;
25073;SDS011;13066;52.042;5.648;2022-08-03T01:38:29;6.20;;;2.30;;
25073;SDS011;13066;52.042;5.648;2022-08-03T01:41:01;6.10;;;2.17;;
25073;SDS011;13066;52.042;5.648;2022-08-03T01:43:33;9.00;;;2.63;;
25073;SDS011;13066;52.042;5.648;2022-08-03T01:46:24;10.00;;;2.65;;
25073;SDS011;13066;52.042;5.648;2022-08-03T01:48:53;9.77;;;3.15;;
25073;SDS011;13066;52.042;5.648;2022-08-03T01:51:22;10.25;;;2.70;;
25073;SDS011;13066;52.042;5.648;2022-08-03T01:54:10;8.65;;;2.50;;
25073;SDS011;13066;52.042;5.648;2022-08-03T01:56:40;9.00;;;2.50;;
25073;SDS011;13066;52.042;5.648;2022-08-03T01:59:10;12.05;;;2.80;;
25073;SDS011;13066;52.042;5.648;2022-08-03T02:01:42;10.13;;;3.03;;
25073;SDS011;13066;52.042;5.648;2022-08-03T02:04:32;11.52;;;3.05;;
25073;SDS011;13066;52.042;5.648;2022-08-03T02:07:02;8.73;;;2.70;;
25073;SDS011;13066;52.042;5.648;2022-08-03T02:09:30;11.70;;;3.65;;
25073;SDS011;13066;52.042;5.648;2022-08-03T02:11:59;12.35;;;2.78;;
25073;SDS011;13066;52.042;5.648;2022-08-03T02:14:27;7.05;;;2.40;;
25073;SDS011;13066;52.042;5.648;2022-08-03T02:16:58;6.95;;;2.53;;
25073;SDS011;13066;52.042;5.648;2022-08-03T02:19:28;14.80;;;3.20;;
25073;SDS011;13066;52.042;5.648;2022-08-03T02:22:01;7.38;;;2.50;;
25073;SDS011;13066;52.042;5.648;2022-08-03T02:24:31;10.57;;;2.88;;
25073;SDS011;13066;52.042;5.648;2022-08-03T02:26:59;8.50;;;2.70;;
25073;SDS011;13066;52.042;5.648;2022-08-03T02:29:30;6.07;;;2.88;;
25073;SDS011;13066;52.042;5.648;2022-08-03T02:32:07;11.32;;;3.00;;
25073;SDS011;13066;52.042;5.648;2022-08-03T02:34:39;8.30;;;2.75;;
25073;SDS011;13066;52.042;5.648;2022-08-03T02:37:09;12.52;;;3.10;;
25073;SDS011;13066;52.042;5.648;2022-08-03T02:39:39;12.35;;;3.40;;
25073;SDS011;13066;52.042;5.648;2022-08-03T02:42:09;9.25;;;2.92;;
25073;SDS011;13066;52.042;5.648;2022-08-03T02:44:40;17.15;;;3.25;;
25073;SDS011;13066;52.042;5.648;2022-08-03T02:47:14;9.15;;;3.28;;
25073;SDS011;13066;52.042;5.648;2022-08-03T02:49:47;13.68;;;3.08;;
25073;SDS011;13066;52.042;5.648;2022-08-03T02:52:18;8.95;;;2.83;;
25073;SDS011;13066;52.042;5.648;2022-08-03T02:54:49;9.02;;;3.08;;
25073;SDS011;13066;52.042;5.648;2022-08-03T02:57:20;9.38;;;3.10;;
25073;SDS011;13066;52.042;5.648;2022-08-03T02:59:49;11.75;;;3.50;;
25073;SDS011;13066;52.042;5.648;2022-08-03T03:02:20;8.00;;;3.13;;
25073;SDS011;13066;52.042;5.648;2022-08-03T03:04:50;7.43;;;3.38;;
25073;SDS011;13066;52.042;5.648;2022-08-03T03:07:39;11.80;;;3.05;;
25073;SDS011;13066;52.042;5.648;2022-08-03T03:10:18;9.57;;;3.15;;
25073;SDS011;13066;52.042;5.648;2022-08-03T03:12:49;10.65;;;3.70;;
25073;SDS011;13066;52.042;5.648;2022-08-03T03:15:18;7.13;;;3.95;;
25073;SDS011;13066;52.042;5.648;2022-08-03T03:17:48;12.90;;;3.60;;
25073;SDS011;13066;52.042;5.648;2022-08-03T03:20:17;13.63;;;3.75;;
25073;SDS011;13066;52.042;5.648;2022-08-03T03:22:57;10.18;;;3.75;;
25073;SDS011;13066;52.042;5.648;2022-08-03T03:25:27;8.93;;;3.33;;
25073;SDS011;13066;52.042;5.648;2022-08-03T03:27:57;11.50;;;4.15;;
25073;SDS011;13066;52.042;5.648;2022-08-03T03:30:26;11.15;;;3.63;;
25073;SDS011;13066;52.042;5.648;2022-08-03T03:32:57;11.18;;;3.92;;
25073;SDS011;13066;52.042;5.648;2022-08-03T03:35:26;10.50;;;3.60;;
25073;SDS011;13066;52.042;5.648;2022-08-03T03:37:54;11.48;;;3.75;;
25073;SDS011;13066;52.042;5.648;2022-08-03T03:40:23;14.20;;;4.18;;
25073;SDS011;13066;52.042;5.648;2022-08-03T03:42:51;9.63;;;4.00;;
25073;SDS011;13066;52.042;5.648;2022-08-03T03:45:19;12.02;;;4.07;;
25073;SDS011;13066;52.042;5.648;2022-08-03T03:47:48;10.00;;;4.20;;
25073;SDS011;13066;52.042;5.648;2022-08-03T03:50:18;13.30;;;4.20;;
25073;SDS011;13066;52.042;5.648;2022-08-03T03:52:46;13.18;;;4.13;;
25073;SDS011;13066;52.042;5.648;2022-08-03T03:55:15;8.77;;;4.00;;
25073;SDS011;13066;52.042;5.648;2022-08-03T03:57:44;11.85;;;4.13;;
25073;SDS011;13066;52.042;5.648;2022-08-03T04:00:13;11.90;;;3.92;;
25073;SDS011;13066;52.042;5.648;2022-08-03T04:02:43;12.68;;;4.22;;
25073;SDS011;13066;52.042;5.648;2022-08-03T04:05:11;14.75;;;4.50;;
25073;SDS011;13066;52.042;5.648;2022-08-03T04:07:58;11.80;;;4.07;;
25073;SDS011;13066;52.042;5.648;2022-08-03T04:10:46;15.95;;;4.55;;
25073;SDS011;13066;52.042;5.648;2022-08-03T04:13:29;9.77;;;3.83;;
25073;SDS011;13066;52.042;5.648;2022-08-03T04:16:00;18.08;;;4.03;;
25073;SDS011;13066;52.042;5.648;2022-08-03T04:18:29;16.73;;;4.38;;
25073;SDS011;13066;52.042;5.648;2022-08-03T04:21:01;12.00;;;4.32;;
25073;SDS011;13066;52.042;5.648;2022-08-03T04:23:34;9.38;;;4.07;;
25073;SDS011;13066;52.042;5.648;2022-08-03T04:26:08;15.02;;;4.80;;
25073;SDS011;13066;52.042;5.648;2022-08-03T04:28:40;9.88;;;4.40;;
25073;SDS011;13066;52.042;5.648;2022-08-03T04:31:11;12.65;;;4.85;;
25073;SDS011;13066;52.042;5.648;2022-08-03T04:33:41;11.98;;;4.60;;
25073;SDS011;13066;52.042;5.648;2022-08-03T04:36:13;16.98;;;5.32;;
25073;SDS011;13066;52.042;5.648;2022-08-03T04:38:49;13.10;;;4.25;;
25073;SDS011;13066;52.042;5.648;2022-08-03T04:41:26;17.30;;;5.10;;
25073;SDS011;13066;52.042;5.648;2022-08-03T04:43:56;15.70;;;4.93;;
25073;SDS011;13066;52.042;5.648;2022-08-03T04:46:26;15.70;;;4.93;;
25073;SDS011;13066;52.042;5.648;2022-08-03T04:48:57;15.60;;;5.20;;
25073;SDS011;13066;52.042;5.648;2022-08-03T04:51:26;16.13;;;4.82;;
25073;SDS011;13066;52.042;5.648;2022-08-03T04:53:56;11.38;;;4.68;;
25073;SDS011;13066;52.042;5.648;2022-08-03T04:56:24;14.13;;;3.90;;
25073;SDS011;13066;52.042;5.648;2022-08-03T04:58:52;14.70;;;4.78;;
25073;SDS011;13066;52.042;5.648;2022-08-03T05:01:20;13.73;;;4.70;;
25073;SDS011;13066;52.042;5.648;2022-08-03T05:03:49;15.23;;;5.25;;
25073;SDS011;13066;52.042;5.648;2022-08-03T05:06:17;14.77;;;4.82;;
25073;SDS011;13066;52.042;5.648;2022-08-03T05:08:50;16.50;;;4.80;;
25073;SDS011;13066;52.042;5.648;2022-08-03T05:11:19;15.13;;;5.15;;
25073;SDS011;13066;52.042;5.648;2022-08-03T05:13:48;12.10;;;4.95;;
25073;SDS011;13066;52.042;5.648;2022-08-03T05:16:16;17.83;;;4.80;;
25073;SDS011;13066;52.042;5.648;2022-08-03T05:18:44;14.65;;;4.45;;
25073;SDS011;13066;52.042;5.648;2022-08-03T05:21:12;15.68;;;5.05;;
25073;SDS011;13066;52.042;5.648;2022-08-03T05:23:42;13.60;;;4.75;;
25073;SDS011;13066;52.042;5.648;2022-08-03T05:26:10;10.68;;;4.85;;
25073;SDS011;13066;52.042;5.648;2022-08-03T05:28:39;20.10;;;4.57;;
25073;SDS011;13066;52.042;5.648;2022-08-03T05:31:16;18.25;;;4.90;;
25073;SDS011;13066;52.042;5.648;2022-08-03T05:33:45;11.82;;;4.63;;
25073;SDS011;13066;52.042;5.648;2022-08-03T05:36:14;12.35;;;5.13;;
25073;SDS011;13066;52.042;5.648;2022-08-03T05:38:42;12.13;;;4.47;;
25073;SDS011;13066;52.042;5.648;2022-08-03T05:41:10;16.40;;;4.78;;
25073;SDS011;13066;52.042;5.648;2022-08-03T05:43:50;15.77;;;5.40;;
25073;SDS011;13066;52.042;5.648;2022-08-03T05:46:19;10.68;;;5.13;;
25073;SDS011;13066;52.042;5.648;2022-08-03T05:48:48;13.13;;;4.95;;
25073;SDS011;13066;52.042;5.648;2022-08-03T05:51:16;14.10;;;4.55;;
25073;SDS011;13066;52.042;5.648;2022-08-03T05:53:44;19.30;;;4.85;;
25073;SDS011;13066;52.042;5.648;2022-08-03T05:56:12;10.98;;;4.43;;
25073;SDS011;13066;52.042;5.648;2022-08-03T05:58:42;11.02;;;5.13;;
25073;SDS011;13066;52.042;5.648;2022-08-03T06:01:13;18.48;;;5.72;;
25073;SDS011;13066;52.042;5.648;2022-08-03T06:03:42;18.17;;;4.72;;
25073;SDS011;13066;52.042;5.648;2022-08-03T06:06:10;17.05;;;5.15;;
25073;SDS011;13066;52.042;5.648;2022-08-03T06:08:39;19.75;;;4.20;;
25073;SDS011;13066;52.042;5.648;2022-08-03T06:11:07;13.50;;;5.55;;
25073;SDS011;13066;52.042;5.648;2022-08-03T06:13:36;11.88;;;4.70;;
25073;SDS011;13066;52.042;5.648;2022-08-03T06:16:04;12.98;;;4.43;;
25073;SDS011;13066;52.042;5.648;2022-08-03T06:18:34;12.25;;;4.15;;
25073;SDS011;13066;52.042;5.648;2022-08-03T06:21:02;15.68;;;4.38;;
25073;SDS011;13066;52.042;5.648;2022-08-03T06:23:41;14.65;;;4.80;;
25073;SDS011;13066;52.042;5.648;2022-08-03T06:26:20;18.15;;;4.32;;
25073;SDS011;13066;52.042;5.648;2022-08-03T06:28:48;13.23;;;4.03;;
25073;SDS011;13066;52.042;5.648;2022-08-03T06:31:20;15.00;;;4.40;;
25073;SDS011;13066;52.042;5.648;2022-08-03T06:33:59;16.38;;;4.03;;
25073;SDS011;13066;52.042;5.648;2022-08-03T06:36:48;18.17;;;3.92;;
25073;SDS011;13066;52.042;5.648;2022-08-03T06:39:18;15.18;;;4.05;;
25073;SDS011;13066;52.042;5.648;2022-08-03T06:41:49;12.07;;;3.65;;
25073;SDS011;13066;52.042;5.648;2022-08-03T06:44:18;21.05;;;4.35;;
25073;SDS011;13066;52.042;5.648;2022-08-03T06:46:46;15.93;;;4.13;;
25073;SDS011;13066;52.042;5.648;2022-08-03T06:49:15;14.23;;;3.90;;
25073;SDS011;13066;52.042;5.648;2022-08-03T06:51:44;13.50;;;3.55;;
25073;SDS011;13066;52.042;5.648;2022-08-03T06:54:32;17.88;;;3.97;;
25073;SDS011;13066;52.042;5.648;2022-08-03T06:57:01;16.33;;;3.35;;
25073;SDS011;13066;52.042;5.648;2022-08-03T06:59:29;26.30;;;3.83;;
25073;SDS011;13066;52.042;5.648;2022-08-03T07:02:18;15.20;;;3.67;;
25073;SDS011;13066;52.042;5.648;2022-08-03T07:04:47;12.57;;;3.38;;
25073;SDS011;13066;52.042;5.648;2022-08-03T07:07:15;18.10;;;2.95;;
25073;SDS011;13066;52.042;5.648;2022-08-03T07:09:44;11.38;;;2.97;;
25073;SDS011;13066;52.042;5.648;2022-08-03T07:12:23;15.85;;;3.75;;
25073;SDS011;13066;52.042;5.648;2022-08-03T07:14:52;14.02;;;3.40;;
25073;SDS011;13066;52.042;5.648;2022-08-03T07:17:26;13.43;;;3.22;;
25073;SDS011;13066;52.042;5.648;2022-08-03T07:19:56;12.32;;;3.42;;
25073;SDS011;13066;52.042;5.648;2022-08-03T07:22:24;10.57;;;3.05;;
25073;SDS011;13066;52.042;5.648;2022-08-03T07:24:52;12.68;;;2.58;;
25073;SDS011;13066;52.042;5.648;2022-08-03T07:27:21;19.25;;;3.22;;
25073;SDS011;13066;52.042;5.648;2022-08-03T07:29:51;17.13;;;3.10;;
25073;SDS011;13066;52.042;5.648;2022-08-03T07:32:20;10.50;;;3.00;;
25073;SDS011;13066;52.042;5.648;2022-08-03T07:34:48;8.25;;;3.03;;
25073;SDS011;13066;52.042;5.648;2022-08-03T07:37:17;18.83;;;3.97;;
25073;SDS011;13066;52.042;5.648;2022-08-03T07:39:45;17.40;;;3.58;;
25073;SDS011;13066;52.042;5.648;2022-08-03T07:42:13;15.68;;;3.25;;
25073;SDS011;13066;52.042;5.648;2022-08-03T07:44:42;16.27;;;3.47;;
25073;SDS011;13066;52.042;5.648;2022-08-03T07:47:10;10.52;;;3.22;;
25073;SDS011;13066;52.042;5.648;2022-08-03T07:49:47;18.90;;;3.83;;
25073;SDS011;13066;52.042;5.648;2022-08-03T07:52:15;12.10;;;2.97;;
25073;SDS011;13066;52.042;5.648;2022-08-03T07:55:03;11.52;;;2.95;;
25073;SDS011;13066;52.042;5.648;2022-08-03T07:57:31;19.08;;;2.70;;
25073;SDS011;13066;52.042;5.648;2022-08-03T08:00:00;12.75;;;3.15;;
25073;SDS011;13066;52.042;5.648;2022-08-03T08:02:28;13.23;;;3.08;;
25073;SDS011;13066;52.042;5.648;2022-08-03T08:04:57;15.50;;;3.17;;
25073;SDS011;13066;52.042;5.648;2022-08-03T08:07:32;12.82;;;3.20;;
25073;SDS011;13066;52.042;5.648;2022-08-03T08:10:00;15.80;;;3.20;;
25073;SDS011;13066;52.042;5.648;2022-08-03T08:12:28;19.30;;;3.13;;
25073;SDS011;13066;52.042;5.648;2022-08-03T08:14:56;11.65;;;3.10;;
25073;SDS011;13066;52.042;5.648;2022-08-03T08:17:24;13.00;;;4.18;;
25073;SDS011;13066;52.042;5.648;2022-08-03T08:19:52;17.25;;;3.38;;
25073;SDS011;13066;52.042;5.648;2022-08-03T08:22:20;11.77;;;2.75;;
25073;SDS011;13066;52.042;5.648;2022-08-03T08:24:57;27.75;;;3.45;;
25073;SDS011;13066;52.042;5.648;2022-08-03T08:27:26;14.15;;;3.60;;
25073;SDS011;13066;52.042;5.648;2022-08-03T08:30:15;11.77;;;2.83;;
25073;SDS011;13066;52.042;5.648;2022-08-03T08:32:45;11.85;;;3.30;;
25073;SDS011;13066;52.042;5.648;2022-08-03T08:35:13;16.63;;;2.97;;
25073;SDS011;13066;52.042;5.648;2022-08-03T08:37:42;10.57;;;2.72;;
25073;SDS011;13066;52.042;5.648;2022-08-03T08:40:17;18.88;;;3.42;;
25073;SDS011;13066;52.042;5.648;2022-08-03T08:42:48;19.17;;;3.08;;
25073;SDS011;13066;52.042;5.648;2022-08-03T08:45:24;13.93;;;3.28;;
25073;SDS011;13066;52.042;5.648;2022-08-03T08:47:54;17.95;;;3.08;;
25073;SDS011;13066;52.042;5.648;2022-08-03T08:50:29;14.15;;;2.75;;
25073;SDS011;13066;52.042;5.648;2022-08-03T08:52:59;14.73;;;2.75;;
25073;SDS011;13066;52.042;5.648;2022-08-03T08:55:30;16.30;;;3.15;;
25073;SDS011;13066;52.042;5.648;2022-08-03T08:58:20;11.95;;;2.72;;
25073;SDS011;13066;52.042;5.648;2022-08-03T09:00:49;23.45;;;3.05;;
25073;SDS011;13066;52.042;5.648;2022-08-03T09:03:17;17.73;;;2.83;;
25073;SDS011;13066;52.042;5.648;2022-08-03T09:05:55;20.52;;;2.78;;
25073;SDS011;13066;52.042;5.648;2022-08-03T09:08:26;19.40;;;2.95;;
25073;SDS011;13066;52.042;5.648;2022-08-03T09:10:56;12.63;;;2.88;;
25073;SDS011;13066;52.042;5.648;2022-08-03T09:13:25;13.88;;;2.83;;
25073;SDS011;13066;52.042;5.648;2022-08-03T09:16:13;10.95;;;2.65;;
25073;SDS011;13066;52.042;5.648;2022-08-03T09:18:43;15.88;;;2.78;;
25073;SDS011;13066;52.042;5.648;2022-08-03T09:21:17;17.13;;;2.70;;
25073;SDS011;13066;52.042;5.648;2022-08-03T09:24:03;12.50;;;2.33;;
25073;SDS011;13066;52.042;5.648;2022-08-03T09:26:49;18.02;;;2.72;;
25073;SDS011;13066;52.042;5.648;2022-08-03T09:29:19;18.07;;;3.77;;
25073;SDS011;13066;52.042;5.648;2022-08-03T09:31:48;15.38;;;2.60;;
25073;SDS011;13066;52.042;5.648;2022-08-03T09:34:26;14.75;;;2.80;;
25073;SDS011;13066;52.042;5.648;2022-08-03T09:36:54;20.95;;;2.58;;
25073;SDS011;13066;52.042;5.648;2022-08-03T09:39:24;17.75;;;3.25;;
25073;SDS011;13066;52.042;5.648;2022-08-03T09:42:09;13.45;;;2.63;;
25073;SDS011;13066;52.042;5.648;2022-08-03T09:44:41;13.60;;;2.55;;
25073;SDS011;13066;52.042;5.648;2022-08-03T09:47:10;12.02;;;2.47;;
25073;SDS011;13066;52.042;5.648;2022-08-03T09:49:40;20.48;;;3.03;;
25073;SDS011;13066;52.042;5.648;2022-08-03T09:52:12;18.77;;;3.47;;
25073;SDS011;13066;52.042;5.648;2022-08-03T09:55:07;15.38;;;2.47;;
25073;SDS011;13066;52.042;5.648;2022-08-03T09:58:04;19.38;;;2.95;;
25073;SDS011;13066;52.042;5.648;2022-08-03T10:00:43;16.45;;;2.67;;
25073;SDS011;13066;52.042;5.648;2022-08-03T10:03:20;22.70;;;3.00;;
25073;SDS011;13066;52.042;5.648;2022-08-03T10:05:49;14.23;;;2.97;;
25073;SDS011;13066;52.042;5.648;2022-08-03T10:08:24;19.65;;;3.05;;
25073;SDS011;13066;52.042;5.648;2022-08-03T10:10:52;16.50;;;2.50;;
25073;SDS011;13066;52.042;5.648;2022-08-03T10:13:21;12.35;;;2.20;;
25073;SDS011;13066;52.042;5.648;2022-08-03T10:15:50;13.90;;;2.90;;
25073;SDS011;13066;52.042;5.648;2022-08-03T10:18:38;14.18;;;3.38;;
25073;SDS011;13066;52.042;5.648;2022-08-03T10:21:07;11.35;;;2.83;;
25073;SDS011;13066;52.042;5.648;2022-08-03T10:23:37;17.10;;;2.90;;
25073;SDS011;13066;52.042;5.648;2022-08-03T10:26:06;17.40;;;2.72;;
25073;SDS011;13066;52.042;5.648;2022-08-03T10:28:36;12.52;;;2.22;;
25073;SDS011;13066;52.042;5.648;2022-08-03T10:31:10;13.00;;;2.38;;
25073;SDS011;13066;52.042;5.648;2022-08-03T10:33:41;18.20;;;2.50;;
25073;SDS011;13066;52.042;5.648;2022-08-03T10:36:17;10.88;;;2.80;;
25073;SDS011;13066;52.042;5.648;2022-08-03T10:38:47;9.13;;;2.03;;
25073;SDS011;13066;52.042;5.648;2022-08-03T10:41:19;15.38;;;2.30;;
25073;SDS011;13066;52.042;5.648;2022-08-03T10:43:49;18.98;;;2.75;;
25073;SDS011;13066;52.042;5.648;2022-08-03T10:46:22;17.13;;;2.85;;
25073;SDS011;13066;52.042;5.648;2022-08-03T10:48:52;11.35;;;2.10;;
25073;SDS011;13066;52.042;5.648;2022-08-03T10:51:22;16.42;;;2.58;;
25073;SDS011;13066;52.042;5.648;2022-08-03T10:53:54;15.55;;;2.40;;
25073;SDS011;13066;52.042;5.648;2022-08-03T10:56:39;17.70;;;2.20;;
25073;SDS011;13066;52.042;5.648;2022-08-03T10:59:56;7.82;;;2.08;;
25073;SDS011;13066;52.042;5.648;2022-08-03T11:05:28;8.73;;;1.83;;
25073;SDS011;13066;52.042;5.648;2022-08-03T11:08:16;12.88;;;2.72;;
25073;SDS011;13066;52.042;5.648;2022-08-03T11:10:49;12.40;;;2.45;;
25073;SDS011;13066;52.042;5.648;2022-08-03T11:13:19;17.40;;;2.20;;
25073;SDS011;13066;52.042;5.648;2022-08-03T11:15:51;16.90;;;2.50;;
25073;SDS011;13066;52.042;5.648;2022-08-03T11:18:26;16.63;;;2.38;;
25073;SDS011;13066;52.042;5.648;2022-08-03T11:20:56;13.07;;;2.25;;
25073;SDS011;13066;52.042;5.648;2022-08-03T11:23:41;8.23;;;2.72;;
25073;SDS011;13066;52.042;5.648;2022-08-03T11:26:31;19.55;;;2.95;;
25073;SDS011;13066;52.042;5.648;2022-08-03T11:34:24;14.77;;;2.28;;
25073;SDS011;13066;52.042;5.648;2022-08-03T11:39:56;17.77;;;2.15;;
25073;SDS011;13066;52.042;5.648;2022-08-03T11:42:37;16.33;;;2.70;;
25073;SDS011;13066;52.042;5.648;2022-08-03T11:45:11;10.38;;;2.40;;
25073;SDS011;13066;52.042;5.648;2022-08-03T11:47:41;13.43;;;2.47;;
25073;SDS011;13066;52.042;5.648;2022-08-03T11:50:16;11.73;;;2.45;;
25073;SDS011;13066;52.042;5.648;2022-08-03T11:52:45;15.45;;;2.10;;
25073;SDS011;13066;52.042;5.648;2022-08-03T11:55:15;15.38;;;2.67;;
25073;SDS011;13066;52.042;5.648;2022-08-03T11:57:45;34.45;;;5.63;;
25073;SDS011;13066;52.042;5.648;2022-08-03T12:00:35;17.33;;;3.45;;
25073;SDS011;13066;52.042;5.648;2022-08-03T12:03:06;12.65;;;3.00;;
25073;SDS011;13066;52.042;5.648;2022-08-03T12:05:37;10.95;;;2.47;;
25073;SDS011;13066;52.042;5.648;2022-08-03T12:08:18;12.25;;;2.60;;
25073;SDS011;13066;52.042;5.648;2022-08-03T12:10:58;14.15;;;2.15;;
25073;SDS011;13066;52.042;5.648;2022-08-03T12:13:27;14.93;;;2.30;;
25073;SDS011;13066;52.042;5.648;2022-08-03T12:16:24;16.55;;;2.75;;
25073;SDS011;13066;52.042;5.648;2022-08-03T12:18:56;11.88;;;2.17;;
25073;SDS011;13066;52.042;5.648;2022-08-03T12:21:25;14.10;;;2.33;;
25073;SDS011;13066;52.042;5.648;2022-08-03T12:23:57;10.43;;;2.30;;
25073;SDS011;13066;52.042;5.648;2022-08-03T12:26:27;11.18;;;2.58;;
25073;SDS011;13066;52.042;5.648;2022-08-03T12:28:55;15.10;;;2.03;;
25073;SDS011;13066;52.042;5.648;2022-08-03T12:31:25;9.60;;;2.13;;
25073;SDS011;13066;52.042;5.648;2022-08-03T12:33:54;17.38;;;1.80;;
25073;SDS011;13066;52.042;5.648;2022-08-03T12:36:27;10.40;;;2.23;;
25073;SDS011;13066;52.042;5.648;2022-08-03T12:38:58;11.90;;;1.85;;
25073;SDS011;13066;52.042;5.648;2022-08-03T12:41:28;15.88;;;2.40;;
25073;SDS011;13066;52.042;5.648;2022-08-03T12:43:59;8.55;;;1.70;;
25073;SDS011;13066;52.042;5.648;2022-08-03T12:46:30;9.27;;;2.00;;
25073;SDS011;13066;52.042;5.648;2022-08-03T12:49:02;10.07;;;1.85;;
25073;SDS011;13066;52.042;5.648;2022-08-03T12:51:33;7.63;;;1.77;;
25073;SDS011;13066;52.042;5.648;2022-08-03T12:54:03;9.93;;;2.05;;
25073;SDS011;13066;52.042;5.648;2022-08-03T12:56:32;6.60;;;1.48;;
25073;SDS011;13066;52.042;5.648;2022-08-03T12:59:00;7.25;;;1.40;;
25073;SDS011;13066;52.042;5.648;2022-08-03T13:02:01;10.15;;;1.58;;
25073;SDS011;13066;52.042;5.648;2022-08-03T13:07:04;3.45;;;1.23;;
25073;SDS011;13066;52.042;5.648;2022-08-03T13:09:40;5.28;;;1.42;;
25073;SDS011;13066;52.042;5.648;2022-08-03T13:12:10;6.15;;;1.40;;
25073;SDS011;13066;52.042;5.648;2022-08-03T13:14:39;7.03;;;1.60;;
25073;SDS011;13066;52.042;5.648;2022-08-03T13:17:07;7.93;;;1.45;;
25073;SDS011;13066;52.042;5.648;2022-08-03T13:19:37;5.85;;;1.83;;
25073;SDS011;13066;52.042;5.648;2022-08-03T13:22:10;10.38;;;2.28;;
25073;SDS011;13066;52.042;5.648;2022-08-03T13:24:38;8.60;;;1.55;;
25073;SDS011;13066;52.042;5.648;2022-08-03T13:27:07;6.03;;;1.40;;
25073;SDS011;13066;52.042;5.648;2022-08-03T13:29:56;7.53;;;1.65;;
25073;SDS011;13066;52.042;5.648;2022-08-03T13:32:25;10.05;;;1.73;;
25073;SDS011;13066;52.042;5.648;2022-08-03T13:34:54;4.60;;;1.13;;
25073;SDS011;13066;52.042;5.648;2022-08-03T13:37:23;7.75;;;1.83;;
25073;SDS011;13066;52.042;5.648;2022-08-03T13:39:52;12.93;;;2.03;;
25073;SDS011;13066;52.042;5.648;2022-08-03T13:42:25;10.55;;;1.58;;
25073;SDS011;13066;52.042;5.648;2022-08-03T13:44:54;7.90;;;1.77;;
25073;SDS011;13066;52.042;5.648;2022-08-03T13:47:22;5.03;;;1.50;;
25073;SDS011;13066;52.042;5.648;2022-08-03T13:49:51;9.02;;;1.67;;
25073;SDS011;13066;52.042;5.648;2022-08-03T13:52:30;8.02;;;1.50;;
25073;SDS011;13066;52.042;5.648;2022-08-03T13:54:59;3.25;;;1.42;;
25073;SDS011;13066;52.042;5.648;2022-08-03T13:57:28;3.00;;;1.30;;
25073;SDS011;13066;52.042;5.648;2022-08-03T14:00:16;6.55;;;1.23;;
25073;SDS011;13066;52.042;5.648;2022-08-03T14:02:54;9.13;;;1.60;;
25073;SDS011;13066;52.042;5.648;2022-08-03T14:05:40;5.13;;;1.30;;
25073;SDS011;13066;52.042;5.648;2022-08-03T14:08:10;6.38;;;1.50;;
25073;SDS011;13066;52.042;5.648;2022-08-03T14:10:40;2.85;;;1.50;;
25073;SDS011;13066;52.042;5.648;2022-08-03T14:13:10;4.78;;;1.30;;
25073;SDS011;13066;52.042;5.648;2022-08-03T14:15:43;3.25;;;1.15;;
25073;SDS011;13066;52.042;5.648;2022-08-03T14:18:17;4.72;;;1.63;;
25073;SDS011;13066;52.042;5.648;2022-08-03T14:20:54;3.63;;;1.50;;
25073;SDS011;13066;52.042;5.648;2022-08-03T14:23:32;7.07;;;1.63;;
25073;SDS011;13066;52.042;5.648;2022-08-03T14:26:00;2.28;;;1.35;;
25073;SDS011;13066;52.042;5.648;2022-08-03T14:28:28;6.15;;;1.45;;
25073;SDS011;13066;52.042;5.648;2022-08-03T14:30:56;5.00;;;1.48;;
25073;SDS011;13066;52.042;5.648;2022-08-03T14:33:25;3.40;;;1.30;;
25073;SDS011;13066;52.042;5.648;2022-08-03T14:35:54;6.10;;;1.52;;
25073;SDS011;13066;52.042;5.648;2022-08-03T14:38:22;3.25;;;1.27;;
25073;SDS011;13066;52.042;5.648;2022-08-03T14:40:52;2.50;;;1.30;;
25073;SDS011;13066;52.042;5.648;2022-08-03T14:43:20;2.30;;;1.40;;
25073;SDS011;13066;52.042;5.648;2022-08-03T14:45:48;3.80;;;1.30;;
25073;SDS011;13066;52.042;5.648;2022-08-03T14:48:19;7.13;;;1.38;;
25073;SDS011;13066;52.042;5.648;2022-08-03T14:51:07;8.70;;;1.40;;
25073;SDS011;13066;52.042;5.648;2022-08-03T14:53:35;2.00;;;1.15;;
25073;SDS011;13066;52.042;5.648;2022-08-03T14:56:05;11.38;;;1.70;;
25073;SDS011;13066;52.042;5.648;2022-08-03T14:58:36;4.40;;;1.63;;
25073;SDS011;13066;52.042;5.648;2022-08-03T15:01:04;7.35;;;1.70;;
25073;SDS011;13066;52.042;5.648;2022-08-03T15:03:53;4.90;;;1.70;;
25073;SDS011;13066;52.042;5.648;2022-08-03T15:06:21;5.72;;;1.70;;
25073;SDS011;13066;52.042;5.648;2022-08-03T15:08:50;5.50;;;1.60;;
25073;SDS011;13066;52.042;5.648;2022-08-03T15:11:39;6.55;;;1.60;;
25073;SDS011;13066;52.042;5.648;2022-08-03T15:14:08;5.05;;;1.38;;
25073;SDS011;13066;52.042;5.648;2022-08-03T15:16:38;9.95;;;1.73;;
25073;SDS011;13066;52.042;5.648;2022-08-03T15:19:07;3.60;;;1.38;;
25073;SDS011;13066;52.042;5.648;2022-08-03T15:21:55;7.97;;;1.38;;
25073;SDS011;13066;52.042;5.648;2022-08-03T15:24:26;4.70;;;1.60;;
25073;SDS011;13066;52.042;5.648;2022-08-03T15:26:55;4.28;;;1.20;;
25073;SDS011;13066;52.042;5.648;2022-08-03T15:29:24;4.95;;;1.35;;